createdAt,value
2017-06-11T00:00:12.456Z,82.41
2017-06-11T00:00:40.712Z,82.22
2017-06-11T00:01:08.764Z,82.03
2017-06-11T00:01:36.742Z,82.03
2017-06-11T00:02:05.002Z,81.93
2017-06-11T00:02:33.062Z,82.22
2017-06-11T00:03:01.210Z,82.31
2017-06-11T00:04:12.555Z,83.08
2017-06-11T00:04:40.869Z,82.98
2017-06-11T00:05:09.223Z,83.08
2017-06-11T00:05:37.489Z,83.08
2017-06-11T00:06:05.769Z,83.04
2017-06-11T00:06:34.067Z,82.98
2017-06-11T00:07:02.267Z,83.42
2017-06-11T00:07:30.536Z,83.17
2017-06-11T00:07:58.806Z,82.89
2017-06-11T00:08:27.147Z,83.08
2017-06-11T00:08:55.391Z,83.27
2017-06-11T00:10:06.761Z,82.98
2017-06-11T00:10:34.973Z,82.84
2017-06-11T00:11:03.326Z,83.08
2017-06-11T00:11:31.683Z,83.08
2017-06-11T00:11:59.973Z,83.33
2017-06-11T00:12:28.000Z,83.17
2017-06-11T00:12:56.298Z,83.56
2017-06-11T00:13:24.562Z,83.65
2017-06-11T00:13:52.923Z,83.23
2017-06-11T00:14:21.181Z,83.65
2017-06-11T00:14:49.327Z,83.61
2017-06-11T00:16:00.693Z,83.56
2017-06-11T00:16:29.002Z,83.08
2017-06-11T00:16:57.168Z,83.17
2017-06-11T00:17:25.521Z,83.27
2017-06-11T00:17:53.876Z,83.37
2017-06-11T00:18:22.092Z,83.27
2017-06-11T00:18:50.296Z,83.17
2017-06-11T00:19:18.481Z,83.27
2017-06-11T00:19:46.844Z,83.27
2017-06-11T00:20:15.203Z,83.08
2017-06-11T00:20:43.549Z,83.08
2017-06-11T00:21:54.812Z,83.56
2017-06-11T00:22:23.128Z,83.08
2017-06-11T00:22:51.483Z,83.17
2017-06-11T00:23:19.748Z,82.98
2017-06-11T00:23:48.037Z,83.17
2017-06-11T00:24:16.344Z,83.17
2017-06-11T00:24:44.639Z,83.08
2017-06-11T00:25:12.836Z,83.56
2017-06-11T00:25:41.202Z,83.08
2017-06-11T00:26:09.453Z,83.56
2017-06-11T00:26:37.767Z,83.17
2017-06-11T00:27:48.999Z,83.27
2017-06-11T00:28:17.352Z,83.08
2017-06-11T00:28:45.740Z,83.08
2017-06-11T00:29:13.909Z,83.17
2017-06-11T00:29:42.247Z,83.46
2017-06-11T00:30:10.465Z,83.65
2017-06-11T00:30:38.708Z,83.61
2017-06-11T00:31:06.983Z,83.56
2017-06-11T00:31:35.349Z,83.84
2017-06-11T00:32:03.648Z,83.61
2017-06-11T00:32:31.997Z,83.65
2017-06-11T00:33:43.374Z,84.23
2017-06-11T00:34:11.594Z,84.13
2017-06-11T00:34:39.858Z,84.42
2017-06-11T00:35:08.196Z,84.32
2017-06-11T00:35:36.307Z,84.52
2017-06-11T00:36:04.522Z,84.38
2017-06-11T00:36:32.871Z,84.52
2017-06-11T00:37:01.177Z,84.47
2017-06-11T00:37:29.394Z,84.89
2017-06-11T00:37:57.560Z,85.09
2017-06-11T00:38:25.907Z,85.09
2017-06-11T00:39:37.384Z,84.8
2017-06-11T00:40:05.609Z,85.09
2017-06-11T00:40:33.841Z,84.89
2017-06-11T00:41:02.249Z,84.28
2017-06-11T00:41:30.446Z,84.32
2017-06-11T00:41:58.651Z,84.42
2017-06-11T00:42:26.952Z,84.52
2017-06-11T00:42:55.126Z,84.61
2017-06-11T00:43:23.513Z,84.32
2017-06-11T00:43:51.804Z,84.8
2017-06-11T00:44:19.960Z,84.99
2017-06-11T00:45:31.377Z,84.89
2017-06-11T00:45:59.696Z,85.33
2017-06-11T00:46:27.871Z,85.42
2017-06-11T00:46:56.133Z,85.24
2017-06-11T00:47:24.364Z,85.33
2017-06-11T00:47:52.617Z,85.28
2017-06-11T00:48:20.818Z,84.7
2017-06-11T00:48:49.016Z,84.85
2017-06-11T00:49:17.446Z,84.38
2017-06-11T00:49:45.680Z,84.56
2017-06-11T00:50:14.048Z,84.66
2017-06-11T00:51:25.317Z,84.7
2017-06-11T00:51:53.656Z,84.38
2017-06-11T00:52:21.952Z,84.38
2017-06-11T00:52:50.335Z,84.52
2017-06-11T00:53:18.667Z,84.42
2017-06-11T00:53:46.977Z,84.42
2017-06-11T00:54:15.081Z,84.28
2017-06-11T00:54:43.330Z,84.23
2017-06-11T00:55:11.691Z,84.23
2017-06-11T00:55:40.068Z,84.32
2017-06-11T00:56:08.402Z,84.13
2017-06-11T00:57:19.667Z,84.32
2017-06-11T00:57:48.039Z,84.32
2017-06-11T00:58:16.387Z,84.47
2017-06-11T00:58:44.587Z,84.47
2017-06-11T00:59:13.717Z,84.56
2017-06-11T00:59:41.944Z,84.47
2017-06-11T01:00:10.181Z,84.95
2017-06-11T01:00:38.383Z,85.05
2017-06-11T01:01:06.753Z,84.89
2017-06-11T01:01:34.936Z,84.89
2017-06-11T01:02:03.174Z,84.66
2017-06-11T01:03:14.438Z,85.14
2017-06-11T01:03:43.091Z,85.33
2017-06-11T01:04:11.354Z,85.81
2017-06-11T01:04:39.672Z,85.71
2017-06-11T01:05:07.999Z,85.71
2017-06-11T01:05:36.305Z,85.81
2017-06-11T01:06:04.540Z,85.9
2017-06-11T01:06:32.761Z,86.1
2017-06-11T01:07:01.500Z,86
2017-06-11T01:07:29.693Z,86
2017-06-11T01:07:58.078Z,86.1
2017-06-11T01:09:09.343Z,86.96
2017-06-11T01:09:37.644Z,87.05
2017-06-11T01:10:05.994Z,87.34
2017-06-11T01:10:34.348Z,87.72
2017-06-11T01:11:02.629Z,87.62
2017-06-11T01:11:30.813Z,87.82
2017-06-11T01:11:59.007Z,88.29
2017-06-11T01:12:27.282Z,88.39
2017-06-11T01:12:55.498Z,88.1
2017-06-11T01:13:23.804Z,88.1
2017-06-11T01:13:51.987Z,88.68
2017-06-11T01:15:03.310Z,88.87
2017-06-11T01:15:31.537Z,89.06
2017-06-11T01:15:59.830Z,88.77
2017-06-11T01:16:28.148Z,88.68
2017-06-11T01:16:56.434Z,89.15
2017-06-11T01:17:24.709Z,88.96
2017-06-11T01:17:52.907Z,89.15
2017-06-11T01:18:20.937Z,89.06
2017-06-11T01:18:49.293Z,89.06
2017-06-11T01:19:17.567Z,88.73
2017-06-11T01:19:45.880Z,88.96
2017-06-11T01:20:57.197Z,89.3
2017-06-11T01:21:25.369Z,89.11
2017-06-11T01:21:53.718Z,89.3
2017-06-11T01:22:21.966Z,89.49
2017-06-11T01:22:50.211Z,89.11
2017-06-11T01:23:18.414Z,88.92
2017-06-11T01:23:47.262Z,89.39
2017-06-11T01:24:15.295Z,89.3
2017-06-11T01:24:43.602Z,89.3
2017-06-11T01:25:11.817Z,89.3
2017-06-11T01:25:40.039Z,89.49
2017-06-11T01:26:51.406Z,89.39
2017-06-11T01:27:19.614Z,89.39
2017-06-11T01:27:47.836Z,89.68
2017-06-11T01:28:16.188Z,89.68
2017-06-11T01:28:44.479Z,90.06
2017-06-11T01:29:12.690Z,89.59
2017-06-11T01:29:40.793Z,90.35
2017-06-11T01:30:08.847Z,90.25
2017-06-11T01:30:37.191Z,90.45
2017-06-11T01:31:05.560Z,90.83
2017-06-11T01:31:33.919Z,90.83
2017-06-11T01:32:45.112Z,90.73
2017-06-11T01:33:13.326Z,90.25
2017-06-11T01:33:41.673Z,90.25
2017-06-11T01:34:10.029Z,89.59
2017-06-11T01:34:38.321Z,89.3
2017-06-11T01:35:06.451Z,89.01
2017-06-11T01:35:34.561Z,89.01
2017-06-11T01:36:02.725Z,88.34
2017-06-11T01:36:31.037Z,87.48
2017-06-11T01:36:59.292Z,87.29
2017-06-11T01:37:27.657Z,87.1
2017-06-11T01:38:38.934Z,86.82
2017-06-11T01:39:07.235Z,87.1
2017-06-11T01:39:35.586Z,86.63
2017-06-11T01:40:03.938Z,86.53
2017-06-11T01:40:32.232Z,86.63
2017-06-11T01:41:00.542Z,86.91
2017-06-11T01:41:28.835Z,86.67
2017-06-11T01:41:56.993Z,86.82
2017-06-11T01:42:25.357Z,87.1
2017-06-11T01:42:53.525Z,87.1
2017-06-11T01:43:21.798Z,87.29
2017-06-11T01:44:33.081Z,87.2
2017-06-11T01:45:01.380Z,87.2
2017-06-11T01:45:29.633Z,87.1
2017-06-11T01:45:57.788Z,87.1
2017-06-11T01:46:26.077Z,87.01
2017-06-11T01:46:54.292Z,87.2
2017-06-11T01:47:22.492Z,87.68
2017-06-11T01:47:50.564Z,87.58
2017-06-11T01:48:18.829Z,87.87
2017-06-11T01:48:47.186Z,88.15
2017-06-11T01:49:15.266Z,88.34
2017-06-11T01:50:26.639Z,88.92
2017-06-11T01:50:54.853Z,88.92
2017-06-11T01:51:23.396Z,89.01
2017-06-11T01:51:51.656Z,89.01
2017-06-11T01:52:19.950Z,89.2
2017-06-11T01:52:48.160Z,88.73
2017-06-11T01:53:16.179Z,89.11
2017-06-11T01:53:44.157Z,89.49
2017-06-11T01:54:12.422Z,89.3
2017-06-11T01:54:40.689Z,89.39
2017-06-11T01:55:09.051Z,89.3
2017-06-11T01:56:20.325Z,89.01
2017-06-11T01:56:48.536Z,89.01
2017-06-11T01:57:16.692Z,89.59
2017-06-11T01:57:44.857Z,89.39
2017-06-11T01:58:13.150Z,89.3
2017-06-11T01:58:41.269Z,89.2
2017-06-11T01:59:09.378Z,89.49
2017-06-11T01:59:37.451Z,89.3
2017-06-11T02:00:05.652Z,89.68
2017-06-11T02:00:33.917Z,89.59
2017-06-11T02:01:02.182Z,89.87
2017-06-11T02:02:13.553Z,90.54
2017-06-11T02:02:41.670Z,90.35
2017-06-11T02:03:10.010Z,90.73
2017-06-11T02:03:38.270Z,90.92
2017-06-11T02:04:06.562Z,91.3
2017-06-11T02:04:34.773Z,91.02
2017-06-11T02:05:02.873Z,91.02
2017-06-11T02:05:30.945Z,91.11
2017-06-11T02:05:59.212Z,91.4
2017-06-11T02:06:27.290Z,91.3
2017-06-11T02:06:55.558Z,92.07
2017-06-11T02:08:06.741Z,92.16
2017-06-11T02:08:34.953Z,91.97
2017-06-11T02:09:03.111Z,92.64
2017-06-11T02:09:31.466Z,92.55
2017-06-11T02:09:59.667Z,92.64
2017-06-11T02:10:27.972Z,92.6
2017-06-11T02:10:56.079Z,93.12
2017-06-11T02:11:24.244Z,93.12
2017-06-11T02:11:52.511Z,93.12
2017-06-11T02:12:20.867Z,93.41
2017-06-11T02:12:49.159Z,93.5
2017-06-11T02:14:00.415Z,94.07
2017-06-11T02:14:28.626Z,94.03
2017-06-11T02:14:56.971Z,93.93
2017-06-11T02:15:25.322Z,94.03
2017-06-11T02:15:53.616Z,94.03
2017-06-11T02:16:21.920Z,94.41
2017-06-11T02:16:50.023Z,94.6
2017-06-11T02:17:18.202Z,95.22
2017-06-11T02:17:46.560Z,95.08
2017-06-11T02:18:14.923Z,94.98
2017-06-11T02:18:42.999Z,94.79
2017-06-11T02:19:54.279Z,94.89
2017-06-11T02:20:22.486Z,95.08
2017-06-11T02:20:50.742Z,95.36
2017-06-11T02:21:19.103Z,95.56
2017-06-11T02:21:47.304Z,95.56
2017-06-11T02:22:15.611Z,95.36
2017-06-11T02:22:43.812Z,95.36
2017-06-11T02:23:11.982Z,95.56
2017-06-11T02:23:40.342Z,95.56
2017-06-11T02:24:08.612Z,95.56
2017-06-11T02:24:36.877Z,95.36
2017-06-11T02:25:48.250Z,95.65
2017-06-11T02:26:16.375Z,95.84
2017-06-11T02:26:44.716Z,96.13
2017-06-11T02:27:12.889Z,95.94
2017-06-11T02:27:41.181Z,96.03
2017-06-11T02:28:09.483Z,96.51
2017-06-11T02:28:38.024Z,96.22
2017-06-11T02:29:06.193Z,96.42
2017-06-11T02:29:34.551Z,96.22
2017-06-11T02:30:02.913Z,96.22
2017-06-11T02:30:31.088Z,96.42
2017-06-11T02:31:42.368Z,97.08
2017-06-11T02:32:10.580Z,96.89
2017-06-11T02:32:38.828Z,97.18
2017-06-11T02:33:07.104Z,96.89
2017-06-11T02:33:35.297Z,97.37
2017-06-11T02:34:03.511Z,97.37
2017-06-11T02:34:31.617Z,97.56
2017-06-11T02:34:59.785Z,97.66
2017-06-11T02:35:28.146Z,97.27
2017-06-11T02:35:56.412Z,97.56
2017-06-11T02:36:24.773Z,97.18
2017-06-11T02:37:36.051Z,97.18
2017-06-11T02:38:04.264Z,97.08
2017-06-11T02:38:32.325Z,97.27
2017-06-11T02:39:00.584Z,97.27
2017-06-11T02:39:28.874Z,97.18
2017-06-11T02:39:57.183Z,97.56
2017-06-11T02:40:25.298Z,97.56
2017-06-11T02:40:53.373Z,98.03
2017-06-11T02:41:21.733Z,97.47
2017-06-11T02:41:49.834Z,97.75
2017-06-11T02:42:18.172Z,97.85
2017-06-11T02:43:29.354Z,97.75
2017-06-11T02:43:57.655Z,98.03
2017-06-11T02:44:25.811Z,97.47
2017-06-11T02:44:53.974Z,97.08
2017-06-11T02:45:22.173Z,97.08
2017-06-11T02:45:50.479Z,97.08
2017-06-11T02:46:18.773Z,97.18
2017-06-11T02:46:46.940Z,97.47
2017-06-11T02:47:15.299Z,97.56
2017-06-11T02:47:43.467Z,97.66
2017-06-11T02:48:11.647Z,96.98
2017-06-11T02:49:22.922Z,97.37
2017-06-11T02:49:51.159Z,97.27
2017-06-11T02:50:19.409Z,96.89
2017-06-11T02:50:47.762Z,97.37
2017-06-11T02:51:16.051Z,97.08
2017-06-11T02:51:44.078Z,97.56
2017-06-11T02:52:12.284Z,97.18
2017-06-11T02:52:40.541Z,97.37
2017-06-11T02:53:08.902Z,97.08
2017-06-11T02:53:37.078Z,97.56
2017-06-11T02:54:05.439Z,97.56
2017-06-11T02:55:16.812Z,98.03
2017-06-11T02:55:45.019Z,97.94
2017-06-11T02:56:13.265Z,97.85
2017-06-11T02:56:41.619Z,98.23
2017-06-11T02:57:09.911Z,98.13
2017-06-11T02:57:38.124Z,98.03
2017-06-11T02:58:06.415Z,98.61
2017-06-11T02:58:34.502Z,98.61
2017-06-11T02:59:02.758Z,98.61
2017-06-11T02:59:31.021Z,98.61
2017-06-11T02:59:59.096Z,98.03
2017-06-11T03:01:10.473Z,98.52
2017-06-11T03:01:38.690Z,98.75
2017-06-11T03:02:06.942Z,98.61
2017-06-11T03:02:35.207Z,98.52
2017-06-11T03:03:03.498Z,98.47
2017-06-11T03:03:31.806Z,98.61
2017-06-11T03:04:00.007Z,98.71
2017-06-11T03:04:28.271Z,98.99
2017-06-11T03:04:56.537Z,98.9
2017-06-11T03:05:24.896Z,99.28
2017-06-11T03:05:53.162Z,98.8
2017-06-11T03:07:04.537Z,99.28
2017-06-11T03:07:32.751Z,98.99
2017-06-11T03:08:00.999Z,98.9
2017-06-11T03:08:29.261Z,98.99
2017-06-11T03:08:57.551Z,98.71
2017-06-11T03:09:25.765Z,98.9
2017-06-11T03:09:54.078Z,98.85
2017-06-11T03:10:22.164Z,99.28
2017-06-11T03:10:50.531Z,99.04
2017-06-11T03:11:18.884Z,99.23
2017-06-11T03:11:47.244Z,98.85
2017-06-11T03:12:58.615Z,99.42
2017-06-11T03:13:26.917Z,98.94
2017-06-11T03:13:55.259Z,99.13
2017-06-11T03:14:23.517Z,98.85
2017-06-11T03:14:51.808Z,99.04
2017-06-11T03:15:19.927Z,99.23
2017-06-11T03:15:48.118Z,99.42
2017-06-11T03:16:16.194Z,99.32
2017-06-11T03:16:44.552Z,99.42
2017-06-11T03:17:12.817Z,99.23
2017-06-11T03:17:41.083Z,98.85
2017-06-11T03:18:52.455Z,99.23
2017-06-11T03:19:20.760Z,99.13
2017-06-11T03:19:48.918Z,99.23
2017-06-11T03:20:17.180Z,99.61
2017-06-11T03:20:45.469Z,98.94
2017-06-11T03:21:13.677Z,98.56
2017-06-11T03:21:41.877Z,97.8
2017-06-11T03:22:10.050Z,97.99
2017-06-11T03:22:38.406Z,97.03
2017-06-11T03:23:06.760Z,97.32
2017-06-11T03:23:35.120Z,97.51
2017-06-11T03:24:46.491Z,97.13
2017-06-11T03:25:14.796Z,96.94
2017-06-11T03:25:43.142Z,96.66
2017-06-11T03:26:11.495Z,96.46
2017-06-11T03:26:39.785Z,96.17
2017-06-11T03:27:08.002Z,96.37
2017-06-11T03:27:36.294Z,96.17
2017-06-11T03:28:04.467Z,96.17
2017-06-11T03:28:32.825Z,96.27
2017-06-11T03:29:01.179Z,96.75
2017-06-11T03:29:29.447Z,96.17
2017-06-11T03:30:40.822Z,96.17
2017-06-11T03:31:09.127Z,96.37
2017-06-11T03:31:37.474Z,96.84
2017-06-11T03:32:05.832Z,97.03
2017-06-11T03:32:34.124Z,97.03
2017-06-11T03:33:02.247Z,96.94
2017-06-11T03:33:30.538Z,97.03
2017-06-11T03:33:58.612Z,97.13
2017-06-11T03:34:26.975Z,96.84
2017-06-11T03:34:55.144Z,96.46
2017-06-11T03:35:23.504Z,96.84
2017-06-11T03:36:34.879Z,96.84
2017-06-11T03:37:03.186Z,96.56
2017-06-11T03:37:31.344Z,96.17
2017-06-11T03:37:59.700Z,97.22
2017-06-11T03:38:27.992Z,96.94
2017-06-11T03:38:56.300Z,96.84
2017-06-11T03:39:24.500Z,97.22
2017-06-11T03:39:52.665Z,97.13
2017-06-11T03:40:20.835Z,97.22
2017-06-11T03:40:49.094Z,96.84
2017-06-11T03:41:17.361Z,97.13
2017-06-11T03:42:28.549Z,96.94
2017-06-11T03:42:56.856Z,97.32
2017-06-11T03:43:25.107Z,97.51
2017-06-11T03:43:53.175Z,97.32
2017-06-11T03:44:21.464Z,97.03
2017-06-11T03:44:49.483Z,97.71
2017-06-11T03:45:17.774Z,97.71
2017-06-11T03:45:45.933Z,97.8
2017-06-11T03:46:14.288Z,97.8
2017-06-11T03:46:42.556Z,97.8
2017-06-11T03:47:10.830Z,97.8
2017-06-11T03:48:22.200Z,98.18
2017-06-11T03:48:50.501Z,98.08
2017-06-11T03:49:18.756Z,97.8
2017-06-11T03:49:47.014Z,98.66
2017-06-11T03:50:15.302Z,98.75
2017-06-11T03:50:43.610Z,97.99
2017-06-11T03:51:11.903Z,98.18
2017-06-11T03:51:40.081Z,97.99
2017-06-11T03:52:08.427Z,97.99
2017-06-11T03:52:36.600Z,98.08
2017-06-11T03:53:04.870Z,98.18
2017-06-11T03:54:16.242Z,98.18
2017-06-11T03:54:44.545Z,98.08
2017-06-11T03:55:12.796Z,98.18
2017-06-11T03:55:41.143Z,98.18
2017-06-11T03:56:09.342Z,98.18
2017-06-11T03:56:37.463Z,98.27
2017-06-11T03:57:05.659Z,97.99
2017-06-11T03:57:33.924Z,97.99
2017-06-11T03:58:02.276Z,98.18
2017-06-11T03:58:30.655Z,97.99
2017-06-11T03:58:58.897Z,98.56
2017-06-11T04:00:10.179Z,98.56
2017-06-11T04:00:38.487Z,98.66
2017-06-11T04:01:06.834Z,98.85
2017-06-11T04:01:35.187Z,99.23
2017-06-11T04:02:03.476Z,98.94
2017-06-11T04:02:31.783Z,99.42
2017-06-11T04:02:59.981Z,99.42
2017-06-11T04:03:28.249Z,99.32
2017-06-11T04:03:56.603Z,99.32
2017-06-11T04:04:24.874Z,99.32
2017-06-11T04:04:53.154Z,98.94
2017-06-11T04:06:04.430Z,99.8
2017-06-11T04:06:32.732Z,99.23
2017-06-11T04:07:00.989Z,98.66
2017-06-11T04:07:30.096Z,98.18
2017-06-11T04:07:58.388Z,97.71
2017-06-11T04:08:26.703Z,97.8
2017-06-11T04:08:54.997Z,98.08
2017-06-11T04:09:23.166Z,98.08
2017-06-11T04:09:51.530Z,98.18
2017-06-11T04:10:19.891Z,98.08
2017-06-11T04:10:48.158Z,98.18
2017-06-11T04:11:59.436Z,98.08
2017-06-11T04:12:27.743Z,98.66
2017-06-11T04:12:56.107Z,98.47
2017-06-11T04:13:24.438Z,98.56
2017-06-11T04:13:52.735Z,98.75
2017-06-11T04:14:21.047Z,99.23
2017-06-11T04:14:49.153Z,99.13
2017-06-11T04:15:17.322Z,99.13
2017-06-11T04:15:45.681Z,99.52
2017-06-11T04:16:13.948Z,99.71
2017-06-11T04:16:42.311Z,99.99
2017-06-11T04:17:53.682Z,99.99
2017-06-11T04:18:21.893Z,99.99
2017-06-11T04:18:50.235Z,99.99
2017-06-11T04:19:18.586Z,99.99
2017-06-11T04:19:46.877Z,99.99
2017-06-11T04:20:15.183Z,99.99
2017-06-11T04:20:43.483Z,99.99
2017-06-11T04:21:11.565Z,99.99
2017-06-11T04:21:39.925Z,99.99
2017-06-11T04:22:08.283Z,99.99
2017-06-11T04:22:36.554Z,99.99
2017-06-11T04:23:47.830Z,99.99
2017-06-11T04:24:16.134Z,99.99
2017-06-11T04:24:44.377Z,99.99
2017-06-11T04:25:12.636Z,99.99
2017-06-11T04:25:40.834Z,99.99
2017-06-11T04:26:09.141Z,99.99
2017-06-11T04:26:37.433Z,99.99
2017-06-11T04:27:05.514Z,99.99
2017-06-11T04:27:33.870Z,99.99
2017-06-11T04:28:02.228Z,99.99
2017-06-11T04:28:30.587Z,99.99
2017-06-11T04:29:41.862Z,99.99
2017-06-11T04:30:10.169Z,99.99
2017-06-11T04:30:38.420Z,99.99
2017-06-11T04:31:06.772Z,99.99
2017-06-11T04:31:35.065Z,99.99
2017-06-11T04:32:03.284Z,99.99
2017-06-11T04:32:31.482Z,99.99
2017-06-11T04:32:59.654Z,99.99
2017-06-11T04:33:28.018Z,99.99
2017-06-11T04:33:56.382Z,99.99
2017-06-11T04:34:24.741Z,99.99
2017-06-11T04:35:36.115Z,99.99
2017-06-11T04:36:04.417Z,99.99
2017-06-11T04:36:32.577Z,99.99
2017-06-11T04:37:00.930Z,99.99
2017-06-11T04:37:29.214Z,99.99
2017-06-11T04:37:57.426Z,99.99
2017-06-11T04:38:25.717Z,99.99
2017-06-11T04:38:54.012Z,99.99
2017-06-11T04:39:22.349Z,99.99
2017-06-11T04:39:50.518Z,99.99
2017-06-11T04:40:18.793Z,99.99
2017-06-11T04:41:30.166Z,99.99
2017-06-11T04:41:58.471Z,99.99
2017-06-11T04:42:26.722Z,99.99
2017-06-11T04:42:55.077Z,99.99
2017-06-11T04:43:23.365Z,99.99
2017-06-11T04:43:51.580Z,99.99
2017-06-11T04:44:19.691Z,99.99
2017-06-11T04:44:47.770Z,99.99
2017-06-11T04:45:16.123Z,99.99
2017-06-11T04:45:44.484Z,99.99
2017-06-11T04:46:12.755Z,99.99
2017-06-11T04:47:24.127Z,99.99
2017-06-11T04:47:52.429Z,99.99
2017-06-11T04:48:20.776Z,99.99
2017-06-11T04:48:49.126Z,99.99
2017-06-11T04:49:17.420Z,99.99
2017-06-11T04:49:45.734Z,99.99
2017-06-11T04:50:14.024Z,99.99
2017-06-11T04:50:42.290Z,99.99
2017-06-11T04:51:10.553Z,99.99
2017-06-11T04:51:38.813Z,99.99
2017-06-11T04:52:07.173Z,99.99
2017-06-11T04:53:18.450Z,99.99
2017-06-11T04:53:46.756Z,99.99
2017-06-11T04:54:15.099Z,99.99
2017-06-11T04:54:43.450Z,99.99
2017-06-11T04:55:11.741Z,99.99
2017-06-11T04:55:39.852Z,99.99
2017-06-11T04:56:08.152Z,99.99
2017-06-11T04:56:36.320Z,99.99
2017-06-11T04:57:04.681Z,99.99
2017-06-11T04:57:32.941Z,99.99
2017-06-11T04:58:01.120Z,99.99
2017-06-11T04:59:12.483Z,99.99
2017-06-11T04:59:40.788Z,99.99
2017-06-11T05:00:09.031Z,99.99
2017-06-11T05:00:37.383Z,99.99
2017-06-11T05:01:05.676Z,99.99
2017-06-11T05:01:33.888Z,99.99
2017-06-11T05:02:01.994Z,99.99
2017-06-11T05:02:30.263Z,99.99
2017-06-11T05:02:58.625Z,99.99
2017-06-11T05:03:26.989Z,99.99
2017-06-11T05:03:55.252Z,99.99
2017-06-11T05:05:06.628Z,99.99
2017-06-11T05:05:34.932Z,99.99
2017-06-11T05:06:03.181Z,99.99
2017-06-11T05:06:31.436Z,99.99
2017-06-11T05:06:59.727Z,99.99
2017-06-11T05:07:27.938Z,99.99
2017-06-11T05:07:56.136Z,99.99
2017-06-11T05:08:24.300Z,99.99
2017-06-11T05:08:52.663Z,99.99
2017-06-11T05:09:21.028Z,99.99
2017-06-11T05:09:49.390Z,99.99
2017-06-11T05:11:00.667Z,99.99
2017-06-11T05:11:28.971Z,99.99
2017-06-11T05:11:57.220Z,99.99
2017-06-11T05:12:25.576Z,99.99
2017-06-11T05:12:53.862Z,99.99
2017-06-11T05:13:22.076Z,99.99
2017-06-11T05:13:50.276Z,99.99
2017-06-11T05:14:18.448Z,99.99
2017-06-11T05:14:46.716Z,99.99
2017-06-11T05:15:15.076Z,99.99
2017-06-11T05:15:43.348Z,99.99
2017-06-11T05:16:54.629Z,99.99
2017-06-11T05:17:22.836Z,99.99
2017-06-11T05:17:51.087Z,99.99
2017-06-11T05:18:19.441Z,99.99
2017-06-11T05:18:47.731Z,99.99
2017-06-11T05:19:16.040Z,99.99
2017-06-11T05:19:44.336Z,99.99
2017-06-11T05:20:12.500Z,99.99
2017-06-11T05:20:40.863Z,99.99
2017-06-11T05:21:09.161Z,99.99
2017-06-11T05:21:37.429Z,99.99
2017-06-11T05:22:48.713Z,99.99
2017-06-11T05:23:17.021Z,99.99
2017-06-11T05:23:45.182Z,99.99
2017-06-11T05:24:13.533Z,99.99
2017-06-11T05:24:41.827Z,99.99
2017-06-11T05:25:10.135Z,99.99
2017-06-11T05:25:38.330Z,99.99
2017-06-11T05:26:06.607Z,99.99
2017-06-11T05:26:34.965Z,99.99
2017-06-11T05:27:03.322Z,99.99
2017-06-11T05:27:31.588Z,99.99
2017-06-11T05:28:42.773Z,99.99
2017-06-11T05:29:11.080Z,99.99
2017-06-11T05:29:39.331Z,99.99
2017-06-11T05:30:07.687Z,99.99
2017-06-11T05:30:35.976Z,99.99
2017-06-11T05:31:04.094Z,99.99
2017-06-11T05:31:32.292Z,99.99
2017-06-11T05:32:00.365Z,99.99
2017-06-11T05:32:28.724Z,99.99
2017-06-11T05:32:57.086Z,99.99
2017-06-11T05:33:25.449Z,99.99
2017-06-11T05:34:36.728Z,99.99
2017-06-11T05:35:04.937Z,99.99
2017-06-11T05:35:33.188Z,99.99
2017-06-11T05:36:01.352Z,99.99
2017-06-11T05:36:29.638Z,99.99
2017-06-11T05:36:57.944Z,99.99
2017-06-11T05:37:26.239Z,99.99
2017-06-11T05:37:54.408Z,99.99
2017-06-11T05:38:22.760Z,99.99
2017-06-11T05:38:51.021Z,99.99
2017-06-11T05:39:19.196Z,99.99
2017-06-11T05:40:30.475Z,99.99
2017-06-11T05:40:58.780Z,99.99
2017-06-11T05:41:27.124Z,99.99
2017-06-11T05:41:55.473Z,99.99
2017-06-11T05:42:23.764Z,99.99
2017-06-11T05:42:52.071Z,99.99
2017-06-11T05:43:20.271Z,99.99
2017-06-11T05:43:48.443Z,99.99
2017-06-11T05:44:16.807Z,99.99
2017-06-11T05:44:45.159Z,99.99
2017-06-11T05:45:13.339Z,99.99
2017-06-11T05:46:24.708Z,99.99
2017-06-11T05:46:52.915Z,99.99
2017-06-11T05:47:21.068Z,99.99
2017-06-11T05:47:49.329Z,99.99
2017-06-11T05:48:17.619Z,99.99
2017-06-11T05:48:45.927Z,99.99
2017-06-11T05:49:14.126Z,99.99
2017-06-11T05:49:42.335Z,99.99
2017-06-11T05:50:10.701Z,99.99
2017-06-11T05:50:38.965Z,99.99
2017-06-11T05:51:07.235Z,99.99
2017-06-11T05:52:18.601Z,99.99
2017-06-11T05:52:46.906Z,99.99
2017-06-11T05:53:15.152Z,99.99
2017-06-11T05:53:43.508Z,99.99
2017-06-11T05:54:11.706Z,99.99
2017-06-11T05:54:40.014Z,99.99
2017-06-11T05:55:08.314Z,99.99
2017-06-11T05:55:36.479Z,99.99
2017-06-11T05:56:04.749Z,99.99
2017-06-11T05:56:33.110Z,99.99
2017-06-11T05:57:01.379Z,99.99
2017-06-11T05:58:12.750Z,99.99
2017-06-11T05:58:40.963Z,99.99
2017-06-11T05:59:09.217Z,99.99
2017-06-11T05:59:37.474Z,99.99
2017-06-11T06:00:05.768Z,99.99
2017-06-11T06:00:33.882Z,99.99
2017-06-11T06:01:02.081Z,99.99
2017-06-11T06:01:30.251Z,99.99
2017-06-11T06:01:58.613Z,99.99
2017-06-11T06:02:26.970Z,99.99
2017-06-11T06:02:55.332Z,99.99
2017-06-11T06:04:07.058Z,99.99
2017-06-11T06:04:35.366Z,99.99
2017-06-11T06:05:03.714Z,99.99
2017-06-11T06:05:32.071Z,99.99
2017-06-11T06:06:00.363Z,99.99
2017-06-11T06:06:28.571Z,99.99
2017-06-11T06:06:56.678Z,99.99
2017-06-11T06:07:24.848Z,99.99
2017-06-11T06:07:53.201Z,99.99
2017-06-11T06:08:21.465Z,99.99
2017-06-11T06:08:49.736Z,99.99
2017-06-11T06:10:00.920Z,99.99
2017-06-11T06:10:29.223Z,99.99
2017-06-11T06:10:57.470Z,99.99
2017-06-11T06:11:25.815Z,99.99
2017-06-11T06:11:54.107Z,99.99
2017-06-11T06:12:22.409Z,99.99
2017-06-11T06:12:50.707Z,99.99
2017-06-11T06:13:18.878Z,99.99
2017-06-11T06:13:47.259Z,99.99
2017-06-11T06:14:15.594Z,99.99
2017-06-11T06:14:43.781Z,99.99
2017-06-11T06:15:55.061Z,99.99
2017-06-11T06:16:23.360Z,99.99
2017-06-11T06:16:51.612Z,99.99
2017-06-11T06:17:19.872Z,99.99
2017-06-11T06:17:48.165Z,99.99
2017-06-11T06:18:16.373Z,99.99
2017-06-11T06:18:44.565Z,99.99
2017-06-11T06:19:12.646Z,99.99
2017-06-11T06:19:41.009Z,99.99
2017-06-11T06:20:09.363Z,99.99
2017-06-11T06:20:37.548Z,99.99
2017-06-11T06:21:48.732Z,99.99
2017-06-11T06:22:16.941Z,99.99
2017-06-11T06:22:45.286Z,99.99
2017-06-11T06:23:13.541Z,99.99
2017-06-11T06:23:41.833Z,99.99
2017-06-11T06:24:09.951Z,99.99
2017-06-11T06:24:38.057Z,99.99
2017-06-11T06:25:06.224Z,99.99
2017-06-11T06:25:34.580Z,99.99
2017-06-11T06:26:02.939Z,99.99
2017-06-11T06:26:31.302Z,99.99
2017-06-11T06:27:42.483Z,99.99
2017-06-11T06:28:10.600Z,99.99
2017-06-11T06:28:38.847Z,99.99
2017-06-11T06:29:07.106Z,99.99
2017-06-11T06:29:35.406Z,99.99
2017-06-11T06:30:03.708Z,99.99
2017-06-11T06:30:31.722Z,99.99
2017-06-11T06:30:59.989Z,99.99
2017-06-11T06:31:28.346Z,99.99
2017-06-11T06:31:56.702Z,99.99
2017-06-11T06:32:25.065Z,99.99
2017-06-11T06:33:36.252Z,99.99
2017-06-11T06:34:04.458Z,99.99
2017-06-11T06:34:32.804Z,99.99
2017-06-11T06:35:00.970Z,99.99
2017-06-11T06:35:29.167Z,99.99
2017-06-11T06:35:57.467Z,99.99
2017-06-11T06:36:25.666Z,99.99
2017-06-11T06:36:53.748Z,99.99
2017-06-11T06:37:22.011Z,99.99
2017-06-11T06:37:50.361Z,99.99
2017-06-11T06:38:18.538Z,99.99
2017-06-11T06:39:29.817Z,99.99
2017-06-11T06:39:58.118Z,99.99
2017-06-11T06:40:26.176Z,99.99
2017-06-11T06:40:54.246Z,99.99
2017-06-11T06:41:22.535Z,99.99
2017-06-11T06:41:50.837Z,99.99
2017-06-11T06:42:19.035Z,99.99
2017-06-11T06:42:47.297Z,99.99
2017-06-11T06:43:15.565Z,99.99
2017-06-11T06:43:43.927Z,99.99
2017-06-11T06:44:12.283Z,99.99
2017-06-11T06:45:23.562Z,99.99
2017-06-11T06:45:51.677Z,99.99
2017-06-11T06:46:20.023Z,99.99
2017-06-11T06:46:48.188Z,99.99
2017-06-11T06:47:16.388Z,99.99
2017-06-11T06:47:44.697Z,99.99
2017-06-11T06:48:12.895Z,99.99
2017-06-11T06:48:41.063Z,99.99
2017-06-11T06:49:09.332Z,99.99
2017-06-11T06:49:37.689Z,99.99
2017-06-11T06:50:06.052Z,99.99
2017-06-11T06:51:17.427Z,99.99
2017-06-11T06:51:45.547Z,99.99
2017-06-11T06:52:13.888Z,99.99
2017-06-11T06:52:42.148Z,99.99
2017-06-11T06:53:10.439Z,99.99
2017-06-11T06:53:38.645Z,99.99
2017-06-11T06:54:06.845Z,99.99
2017-06-11T06:54:35.107Z,99.99
2017-06-11T06:55:03.378Z,99.99